sensor_id;sensor_type;location;lat;lon;timestamp;temperature;humidity
69084;SHT31;56185;48.526;9.044;2023-05-07T00:01:26;14.32;78.46
69084;SHT31;56185;48.526;9.044;2023-05-07T00:03:51;14.24;78.62
69084;SHT31;56185;48.526;9.044;2023-05-07T00:06:16;14.31;78.25
69084;SHT31;56185;48.526;9.044;2023-05-07T00:08:41;14.34;77.82
69084;SHT31;56185;48.526;9.044;2023-05-07T00:11:07;14.20;78.27
69084;SHT31;56185;48.526;9.044;2023-05-07T00:13:33;14.13;78.46
69084;SHT31;56185;48.526;9.044;2023-05-07T00:15:58;14.13;78.85
69084;SHT31;56185;48.526;9.044;2023-05-07T00:18:23;14.29;77.65
69084;SHT31;56185;48.526;9.044;2023-05-07T00:20:49;14.28;78.32
69084;SHT31;56185;48.526;9.044;2023-05-07T00:23:14;14.13;78.70
69084;SHT31;56185;48.526;9.044;2023-05-07T00:25:39;14.07;78.80
69084;SHT31;56185;48.526;9.044;2023-05-07T00:28:05;14.00;78.91
69084;SHT31;56185;48.526;9.044;2023-05-07T00:30:31;13.98;79.15
69084;SHT31;56185;48.526;9.044;2023-05-07T00:32:56;14.00;79.42
69084;SHT31;56185;48.526;9.044;2023-05-07T00:35:21;13.93;78.66
69084;SHT31;56185;48.526;9.044;2023-05-07T00:37:46;14.08;78.29
69084;SHT31;56185;48.526;9.044;2023-05-07T00:40:12;14.05;78.68
69084;SHT31;56185;48.526;9.044;2023-05-07T00:42:37;14.11;78.12
69084;SHT31;56185;48.526;9.044;2023-05-07T00:45:03;14.08;78.29
69084;SHT31;56185;48.526;9.044;2023-05-07T00:47:28;14.22;78.01
69084;SHT31;56185;48.526;9.044;2023-05-07T00:49:54;14.03;78.89
69084;SHT31;56185;48.526;9.044;2023-05-07T00:52:20;13.93;79.24
69084;SHT31;56185;48.526;9.044;2023-05-07T00:54:47;14.17;78.28
69084;SHT31;56185;48.526;9.044;2023-05-07T00:57:12;14.13;77.79
69084;SHT31;56185;48.526;9.044;2023-05-07T00:59:37;14.15;78.79
69084;SHT31;56185;48.526;9.044;2023-05-07T01:02:03;14.14;77.85
69084;SHT31;56185;48.526;9.044;2023-05-07T01:04:28;13.94;78.22
69084;SHT31;56185;48.526;9.044;2023-05-07T01:06:55;14.00;78.66
69084;SHT31;56185;48.526;9.044;2023-05-07T01:09:21;14.05;77.93
69084;SHT31;56185;48.526;9.044;2023-05-07T01:11:49;14.00;77.90
69084;SHT31;56185;48.526;9.044;2023-05-07T01:14:16;13.88;78.74
69084;SHT31;56185;48.526;9.044;2023-05-07T01:16:41;13.69;79.56
69084;SHT31;56185;48.526;9.044;2023-05-07T01:19:07;13.52;80.62
69084;SHT31;56185;48.526;9.044;2023-05-07T01:21:33;13.45;80.84
69084;SHT31;56185;48.526;9.044;2023-05-07T01:23:58;13.59;80.46
69084;SHT31;56185;48.526;9.044;2023-05-07T01:26:24;13.67;79.93
69084;SHT31;56185;48.526;9.044;2023-05-07T01:28:49;13.49;81.08
69084;SHT31;56185;48.526;9.044;2023-05-07T01:31:15;13.60;80.23
69084;SHT31;56185;48.526;9.044;2023-05-07T01:33:44;13.53;79.87
69084;SHT31;56185;48.526;9.044;2023-05-07T01:36:11;13.47;80.24
69084;SHT31;56185;48.526;9.044;2023-05-07T01:38:37;13.34;81.17
69084;SHT31;56185;48.526;9.044;2023-05-07T01:41:03;13.43;80.20
69084;SHT31;56185;48.526;9.044;2023-05-07T01:43:29;13.30;81.17
69084;SHT31;56185;48.526;9.044;2023-05-07T01:45:55;13.38;80.55
69084;SHT31;56185;48.526;9.044;2023-05-07T01:48:22;13.25;81.07
69084;SHT31;56185;48.526;9.044;2023-05-07T01:50:48;13.15;81.29
69084;SHT31;56185;48.526;9.044;2023-05-07T01:53:14;13.18;81.26
69084;SHT31;56185;48.526;9.044;2023-05-07T01:55:39;13.22;80.73
69084;SHT31;56185;48.526;9.044;2023-05-07T01:58:04;13.42;80.13
69084;SHT31;56185;48.526;9.044;2023-05-07T02:00:29;13.32;80.82
69084;SHT31;56185;48.526;9.044;2023-05-07T02:02:55;13.23;80.50
69084;SHT31;56185;48.526;9.044;2023-05-07T02:05:20;13.14;81.47
69084;SHT31;56185;48.526;9.044;2023-05-07T02:07:46;13.22;80.82
69084;SHT31;56185;48.526;9.044;2023-05-07T02:10:11;13.11;81.00
69084;SHT31;56185;48.526;9.044;2023-05-07T02:12:36;13.05;81.64
69084;SHT31;56185;48.526;9.044;2023-05-07T02:15:02;12.92;82.35
69084;SHT31;56185;48.526;9.044;2023-05-07T02:17:27;13.14;80.77
69084;SHT31;56185;48.526;9.044;2023-05-07T02:19:52;13.05;81.65
69084;SHT31;56185;48.526;9.044;2023-05-07T02:22:18;13.08;81.09
69084;SHT31;56185;48.526;9.044;2023-05-07T02:24:43;13.07;81.60
69084;SHT31;56185;48.526;9.044;2023-05-07T02:27:08;13.08;80.85
69084;SHT31;56185;48.526;9.044;2023-05-07T02:29:33;13.25;80.31
69084;SHT31;56185;48.526;9.044;2023-05-07T02:31:59;13.25;79.58
69084;SHT31;56185;48.526;9.044;2023-05-07T02:34:24;13.19;79.69
69084;SHT31;56185;48.526;9.044;2023-05-07T02:36:49;13.18;79.94
69084;SHT31;56185;48.526;9.044;2023-05-07T02:39:14;13.25;79.85
69084;SHT31;56185;48.526;9.044;2023-05-07T02:41:40;13.16;80.49
69084;SHT31;56185;48.526;9.044;2023-05-07T02:44:05;13.18;80.18
69084;SHT31;56185;48.526;9.044;2023-05-07T02:46:30;13.01;80.53
69084;SHT31;56185;48.526;9.044;2023-05-07T02:48:55;13.04;80.84
69084;SHT31;56185;48.526;9.044;2023-05-07T02:51:22;12.91;80.96
69084;SHT31;56185;48.526;9.044;2023-05-07T02:53:47;12.88;80.59
69084;SHT31;56185;48.526;9.044;2023-05-07T02:56:13;12.88;80.63
69084;SHT31;56185;48.526;9.044;2023-05-07T02:58:38;12.81;81.05
69084;SHT31;56185;48.526;9.044;2023-05-07T03:01:03;12.74;81.63
69084;SHT31;56185;48.526;9.044;2023-05-07T03:03:29;12.80;81.18
69084;SHT31;56185;48.526;9.044;2023-05-07T03:05:54;12.99;79.82
69084;SHT31;56185;48.526;9.044;2023-05-07T03:08:19;12.97;79.97
69084;SHT31;56185;48.526;9.044;2023-05-07T03:10:44;12.78;80.04
69084;SHT31;56185;48.526;9.044;2023-05-07T03:13:09;12.63;80.59
69084;SHT31;56185;48.526;9.044;2023-05-07T03:15:35;12.37;81.93
69084;SHT31;56185;48.526;9.044;2023-05-07T03:18:00;12.26;82.66
69084;SHT31;56185;48.526;9.044;2023-05-07T03:20:25;12.20;82.55
69084;SHT31;56185;48.526;9.044;2023-05-07T03:22:50;12.22;83.09
69084;SHT31;56185;48.526;9.044;2023-05-07T03:25:16;12.22;82.82
69084;SHT31;56185;48.526;9.044;2023-05-07T03:27:41;12.10;83.44
69084;SHT31;56185;48.526;9.044;2023-05-07T03:30:07;12.03;83.39
69084;SHT31;56185;48.526;9.044;2023-05-07T03:32:32;12.02;83.24
69084;SHT31;56185;48.526;9.044;2023-05-07T03:34:58;11.88;84.40
69084;SHT31;56185;48.526;9.044;2023-05-07T03:37:23;11.86;84.53
69084;SHT31;56185;48.526;9.044;2023-05-07T03:39:48;11.82;84.92
69084;SHT31;56185;48.526;9.044;2023-05-07T03:42:15;11.98;84.14
69084;SHT31;56185;48.526;9.044;2023-05-07T03:44:40;12.12;83.62
69084;SHT31;56185;48.526;9.044;2023-05-07T03:47:05;12.13;83.39
69084;SHT31;56185;48.526;9.044;2023-05-07T03:49:30;12.19;83.47
69084;SHT31;56185;48.526;9.044;2023-05-07T03:51:56;12.33;81.83
69084;SHT31;56185;48.526;9.044;2023-05-07T03:54:21;12.30;82.22
69084;SHT31;56185;48.526;9.044;2023-05-07T03:56:46;12.19;82.91
69084;SHT31;56185;48.526;9.044;2023-05-07T03:59:12;12.09;83.65
69084;SHT31;56185;48.526;9.044;2023-05-07T04:01:37;12.05;83.27
69084;SHT31;56185;48.526;9.044;2023-05-07T04:04:03;11.93;83.85
69084;SHT31;56185;48.526;9.044;2023-05-07T04:06:28;12.02;83.04
69084;SHT31;56185;48.526;9.044;2023-05-07T04:08:53;12.05;82.75
69084;SHT31;56185;48.526;9.044;2023-05-07T04:11:19;12.00;83.36
69084;SHT31;56185;48.526;9.044;2023-05-07T04:13:44;11.96;83.54
69084;SHT31;56185;48.526;9.044;2023-05-07T04:16:09;11.92;83.97
69084;SHT31;56185;48.526;9.044;2023-05-07T04:18:34;11.98;83.96
69084;SHT31;56185;48.526;9.044;2023-05-07T04:21:00;11.95;83.96
69084;SHT31;56185;48.526;9.044;2023-05-07T04:23:25;11.95;84.21
69084;SHT31;56185;48.526;9.044;2023-05-07T04:25:50;11.99;83.97
69084;SHT31;56185;48.526;9.044;2023-05-07T04:28:16;12.06;83.86
69084;SHT31;56185;48.526;9.044;2023-05-07T04:30:41;12.12;83.00
69084;SHT31;56185;48.526;9.044;2023-05-07T04:33:06;12.18;83.55
69084;SHT31;56185;48.526;9.044;2023-05-07T04:35:31;12.19;82.53
69084;SHT31;56185;48.526;9.044;2023-05-07T04:37:57;12.16;83.45
69084;SHT31;56185;48.526;9.044;2023-05-07T04:40:22;12.15;83.39
69084;SHT31;56185;48.526;9.044;2023-05-07T04:42:47;12.25;82.58
69084;SHT31;56185;48.526;9.044;2023-05-07T04:45:12;12.23;82.15
69084;SHT31;56185;48.526;9.044;2023-05-07T04:47:38;12.19;82.08
69084;SHT31;56185;48.526;9.044;2023-05-07T04:50:04;12.23;82.00
69084;SHT31;56185;48.526;9.044;2023-05-07T04:52:30;12.23;82.71
69084;SHT31;56185;48.526;9.044;2023-05-07T04:54:55;12.20;81.91
69084;SHT31;56185;48.526;9.044;2023-05-07T04:57:20;12.37;82.07
69084;SHT31;56185;48.526;9.044;2023-05-07T04:59:45;12.54;80.44
69084;SHT31;56185;48.526;9.044;2023-05-07T05:02:11;12.47;80.33
69084;SHT31;56185;48.526;9.044;2023-05-07T05:04:36;12.53;80.18
69084;SHT31;56185;48.526;9.044;2023-05-07T05:07:01;12.54;80.71
69084;SHT31;56185;48.526;9.044;2023-05-07T05:09:26;12.68;80.20
69084;SHT31;56185;48.526;9.044;2023-05-07T05:11:52;12.58;80.48
69084;SHT31;56185;48.526;9.044;2023-05-07T05:14:17;12.69;80.03
69084;SHT31;56185;48.526;9.044;2023-05-07T05:16:42;12.68;80.52
69084;SHT31;56185;48.526;9.044;2023-05-07T05:19:08;12.61;80.65
69084;SHT31;56185;48.526;9.044;2023-05-07T05:21:33;12.84;79.98
69084;SHT31;56185;48.526;9.044;2023-05-07T05:23:58;12.83;80.27
69084;SHT31;56185;48.526;9.044;2023-05-07T05:26:23;12.92;79.38
69084;SHT31;56185;48.526;9.044;2023-05-07T05:28:49;13.01;78.87
69084;SHT31;56185;48.526;9.044;2023-05-07T05:31:15;12.97;79.38
69084;SHT31;56185;48.526;9.044;2023-05-07T05:33:41;12.98;79.36
69084;SHT31;56185;48.526;9.044;2023-05-07T05:36:08;13.15;80.25
69084;SHT31;56185;48.526;9.044;2023-05-07T05:38:34;13.08;80.43
69084;SHT31;56185;48.526;9.044;2023-05-07T05:40:59;13.18;79.70
69084;SHT31;56185;48.526;9.044;2023-05-07T05:43:24;13.28;79.17
69084;SHT31;56185;48.526;9.044;2023-05-07T05:45:49;13.35;78.97
69084;SHT31;56185;48.526;9.044;2023-05-07T05:48:15;13.32;79.01
69084;SHT31;56185;48.526;9.044;2023-05-07T05:50:42;13.43;78.84
69084;SHT31;56185;48.526;9.044;2023-05-07T05:53:07;13.49;79.11
69084;SHT31;56185;48.526;9.044;2023-05-07T05:55:33;13.50;79.14
69084;SHT31;56185;48.526;9.044;2023-05-07T05:57:59;13.52;78.78
69084;SHT31;56185;48.526;9.044;2023-05-07T06:00:25;13.57;78.51
69084;SHT31;56185;48.526;9.044;2023-05-07T06:02:50;13.65;78.91
69084;SHT31;56185;48.526;9.044;2023-05-07T06:05:15;13.70;78.54
69084;SHT31;56185;48.526;9.044;2023-05-07T06:07:40;13.73;79.08
69084;SHT31;56185;48.526;9.044;2023-05-07T06:10:07;13.70;77.91
69084;SHT31;56185;48.526;9.044;2023-05-07T06:12:34;13.76;78.86
69084;SHT31;56185;48.526;9.044;2023-05-07T06:15:00;13.74;78.17
69084;SHT31;56185;48.526;9.044;2023-05-07T06:17:25;13.74;78.12
69084;SHT31;56185;48.526;9.044;2023-05-07T06:19:51;13.83;77.82
69084;SHT31;56185;48.526;9.044;2023-05-07T06:22:17;13.84;78.03
69084;SHT31;56185;48.526;9.044;2023-05-07T06:24:48;13.91;77.69
69084;SHT31;56185;48.526;9.044;2023-05-07T06:27:13;13.81;78.60
69084;SHT31;56185;48.526;9.044;2023-05-07T06:29:38;14.00;78.27
69084;SHT31;56185;48.526;9.044;2023-05-07T06:32:12;14.08;77.89
69084;SHT31;56185;48.526;9.044;2023-05-07T06:34:39;14.05;77.92
69084;SHT31;56185;48.526;9.044;2023-05-07T06:37:05;14.11;78.18
69084;SHT31;56185;48.526;9.044;2023-05-07T06:39:30;14.15;77.34
69084;SHT31;56185;48.526;9.044;2023-05-07T06:41:55;14.24;77.97
69084;SHT31;56185;48.526;9.044;2023-05-07T06:44:21;14.38;77.67
69084;SHT31;56185;48.526;9.044;2023-05-07T06:46:46;14.42;77.38
69084;SHT31;56185;48.526;9.044;2023-05-07T06:49:14;14.52;77.69
69084;SHT31;56185;48.526;9.044;2023-05-07T06:51:40;14.52;77.50
69084;SHT31;56185;48.526;9.044;2023-05-07T06:54:05;14.51;77.48
69084;SHT31;56185;48.526;9.044;2023-05-07T06:56:31;14.48;77.91
69084;SHT31;56185;48.526;9.044;2023-05-07T06:58:57;14.55;77.13
69084;SHT31;56185;48.526;9.044;2023-05-07T07:01:22;14.58;77.31
69084;SHT31;56185;48.526;9.044;2023-05-07T07:03:47;14.66;76.49
69084;SHT31;56185;48.526;9.044;2023-05-07T07:06:13;14.79;76.52
69084;SHT31;56185;48.526;9.044;2023-05-07T07:08:38;14.86;76.83
69084;SHT31;56185;48.526;9.044;2023-05-07T07:11:03;14.96;75.52
69084;SHT31;56185;48.526;9.044;2023-05-07T07:13:28;15.02;75.53
69084;SHT31;56185;48.526;9.044;2023-05-07T07:15:54;15.17;75.15
69084;SHT31;56185;48.526;9.044;2023-05-07T07:18:19;15.31;74.73
69084;SHT31;56185;48.526;9.044;2023-05-07T07:20:44;15.41;74.52
69084;SHT31;56185;48.526;9.044;2023-05-07T07:23:09;15.48;74.90
69084;SHT31;56185;48.526;9.044;2023-05-07T07:25:35;15.64;74.63
69084;SHT31;56185;48.526;9.044;2023-05-07T07:28:00;15.72;73.30
69084;SHT31;56185;48.526;9.044;2023-05-07T07:30:26;15.81;74.19
69084;SHT31;56185;48.526;9.044;2023-05-07T07:32:51;15.99;71.88
69084;SHT31;56185;48.526;9.044;2023-05-07T07:35:16;15.99;71.88
69084;SHT31;56185;48.526;9.044;2023-05-07T07:37:41;16.03;72.39
69084;SHT31;56185;48.526;9.044;2023-05-07T07:40:07;16.13;72.77
69084;SHT31;56185;48.526;9.044;2023-05-07T07:42:32;16.16;73.12
69084;SHT31;56185;48.526;9.044;2023-05-07T07:44:58;16.22;73.58
69084;SHT31;56185;48.526;9.044;2023-05-07T07:47:23;16.24;73.65
69084;SHT31;56185;48.526;9.044;2023-05-07T07:49:48;16.24;73.31
69084;SHT31;56185;48.526;9.044;2023-05-07T07:52:13;16.33;73.61
69084;SHT31;56185;48.526;9.044;2023-05-07T07:54:39;16.30;73.59
69084;SHT31;56185;48.526;9.044;2023-05-07T07:57:04;16.39;73.05
69084;SHT31;56185;48.526;9.044;2023-05-07T07:59:30;16.46;73.76
69084;SHT31;56185;48.526;9.044;2023-05-07T08:01:55;16.43;73.33
69084;SHT31;56185;48.526;9.044;2023-05-07T08:04:21;16.47;74.19
69084;SHT31;56185;48.526;9.044;2023-05-07T08:06:46;16.54;73.51
69084;SHT31;56185;48.526;9.044;2023-05-07T08:09:11;16.56;73.46
69084;SHT31;56185;48.526;9.044;2023-05-07T08:11:37;16.54;74.33
69084;SHT31;56185;48.526;9.044;2023-05-07T08:14:02;16.67;72.97
69084;SHT31;56185;48.526;9.044;2023-05-07T08:16:28;16.64;74.15
69084;SHT31;56185;48.526;9.044;2023-05-07T08:18:53;16.82;72.77
69084;SHT31;56185;48.526;9.044;2023-05-07T08:21:19;16.92;73.63
69084;SHT31;56185;48.526;9.044;2023-05-07T08:23:44;16.92;72.62
69084;SHT31;56185;48.526;9.044;2023-05-07T08:26:09;17.04;72.33
69084;SHT31;56185;48.526;9.044;2023-05-07T08:28:35;17.19;72.25
69084;SHT31;56185;48.526;9.044;2023-05-07T08:31:00;17.26;71.67
69084;SHT31;56185;48.526;9.044;2023-05-07T08:33:25;17.42;71.49
69084;SHT31;56185;48.526;9.044;2023-05-07T08:35:50;17.63;71.02
69084;SHT31;56185;48.526;9.044;2023-05-07T08:38:16;17.66;69.17
69084;SHT31;56185;48.526;9.044;2023-05-07T08:40:41;17.74;69.47
69084;SHT31;56185;48.526;9.044;2023-05-07T08:43:06;17.93;69.98
69084;SHT31;56185;48.526;9.044;2023-05-07T08:45:33;17.96;69.74
69084;SHT31;56185;48.526;9.044;2023-05-07T08:48:02;18.10;67.01
69084;SHT31;56185;48.526;9.044;2023-05-07T08:50:27;18.15;66.69
69084;SHT31;56185;48.526;9.044;2023-05-07T08:52:53;18.28;66.40
69084;SHT31;56185;48.526;9.044;2023-05-07T08:55:18;18.35;66.97
69084;SHT31;56185;48.526;9.044;2023-05-07T08:57:44;18.55;66.09
69084;SHT31;56185;48.526;9.044;2023-05-07T09:00:10;18.68;65.61
69084;SHT31;56185;48.526;9.044;2023-05-07T09:02:36;18.75;63.94
69084;SHT31;56185;48.526;9.044;2023-05-07T09:05:02;18.83;63.19
69084;SHT31;56185;48.526;9.044;2023-05-07T09:07:27;18.92;64.24
69084;SHT31;56185;48.526;9.044;2023-05-07T09:09:53;18.96;63.35
69084;SHT31;56185;48.526;9.044;2023-05-07T09:12:18;19.10;64.09
69084;SHT31;56185;48.526;9.044;2023-05-07T09:14:44;19.24;64.26
69084;SHT31;56185;48.526;9.044;2023-05-07T09:19:36;19.57;63.75
69084;SHT31;56185;48.526;9.044;2023-05-07T09:22:03;19.74;63.93
69084;SHT31;56185;48.526;9.044;2023-05-07T09:24:28;19.82;63.15
69084;SHT31;56185;48.526;9.044;2023-05-07T09:26:54;19.92;61.59
69084;SHT31;56185;48.526;9.044;2023-05-07T09:29:20;20.08;60.50
69084;SHT31;56185;48.526;9.044;2023-05-07T09:31:46;20.05;62.28
69084;SHT31;56185;48.526;9.044;2023-05-07T09:34:11;20.16;62.44
69084;SHT31;56185;48.526;9.044;2023-05-07T09:36:36;20.26;62.29
69084;SHT31;56185;48.526;9.044;2023-05-07T09:39:02;20.36;62.84
69084;SHT31;56185;48.526;9.044;2023-05-07T09:41:29;20.51;62.36
69084;SHT31;56185;48.526;9.044;2023-05-07T09:43:55;20.58;61.03
69084;SHT31;56185;48.526;9.044;2023-05-07T09:46:34;20.74;62.38
69084;SHT31;56185;48.526;9.044;2023-05-07T09:49:02;20.88;62.23
69084;SHT31;56185;48.526;9.044;2023-05-07T09:51:53;21.01;59.65
69084;SHT31;56185;48.526;9.044;2023-05-07T09:54:19;21.09;58.73
69084;SHT31;56185;48.526;9.044;2023-05-07T09:56:44;21.11;59.59
69084;SHT31;56185;48.526;9.044;2023-05-07T09:59:14;21.18;60.34
69084;SHT31;56185;48.526;9.044;2023-05-07T10:01:41;21.26;59.72
69084;SHT31;56185;48.526;9.044;2023-05-07T10:04:07;21.31;58.78
69084;SHT31;56185;48.526;9.044;2023-05-07T10:06:35;21.46;59.95
69084;SHT31;56185;48.526;9.044;2023-05-07T10:09:02;21.45;59.03
69084;SHT31;56185;48.526;9.044;2023-05-07T10:11:27;21.56;59.00
69084;SHT31;56185;48.526;9.044;2023-05-07T10:13:53;21.76;58.91
69084;SHT31;56185;48.526;9.044;2023-05-07T10:16:18;21.79;56.82
69084;SHT31;56185;48.526;9.044;2023-05-07T10:18:44;21.93;55.71
69084;SHT31;56185;48.526;9.044;2023-05-07T10:23:38;22.00;57.94
69084;SHT31;56185;48.526;9.044;2023-05-07T10:26:06;22.18;57.04
69084;SHT31;56185;48.526;9.044;2023-05-07T10:28:38;22.28;54.18
69084;SHT31;56185;48.526;9.044;2023-05-07T10:34:07;22.38;57.07
69084;SHT31;56185;48.526;9.044;2023-05-07T10:36:34;22.45;54.18
69084;SHT31;56185;48.526;9.044;2023-05-07T10:39:00;22.58;54.50
69084;SHT31;56185;48.526;9.044;2023-05-07T10:41:25;22.73;53.04
69084;SHT31;56185;48.526;9.044;2023-05-07T10:43:50;22.77;51.12
69084;SHT31;56185;48.526;9.044;2023-05-07T10:46:18;22.73;52.13
69084;SHT31;56185;48.526;9.044;2023-05-07T10:51:27;22.93;53.32
69084;SHT31;56185;48.526;9.044;2023-05-07T10:56:37;22.92;52.20
69084;SHT31;56185;48.526;9.044;2023-05-07T11:01:54;23.09;50.94
69084;SHT31;56185;48.526;9.044;2023-05-07T11:04:20;23.07;51.52
69084;SHT31;56185;48.526;9.044;2023-05-07T11:12:16;23.65;50.91
69084;SHT31;56185;48.526;9.044;2023-05-07T11:17:07;23.81;48.91
69084;SHT31;56185;48.526;9.044;2023-05-07T11:20:03;23.89;49.02
69084;SHT31;56185;48.526;9.044;2023-05-07T11:25:00;23.98;48.94
69084;SHT31;56185;48.526;9.044;2023-05-07T11:27:26;23.85;48.30
69084;SHT31;56185;48.526;9.044;2023-05-07T11:29:52;23.82;49.83
69084;SHT31;56185;48.526;9.044;2023-05-07T11:32:28;23.75;49.01
69084;SHT31;56185;48.526;9.044;2023-05-07T11:34:54;23.61;47.69
69084;SHT31;56185;48.526;9.044;2023-05-07T11:37:21;23.53;48.35
69084;SHT31;56185;48.526;9.044;2023-05-07T11:39:46;23.40;47.39
69084;SHT31;56185;48.526;9.044;2023-05-07T11:42:35;23.33;48.63
69084;SHT31;56185;48.526;9.044;2023-05-07T11:45:01;23.31;49.89
69084;SHT31;56185;48.526;9.044;2023-05-07T11:47:30;23.24;51.40
69084;SHT31;56185;48.526;9.044;2023-05-07T11:49:55;23.28;50.89
69084;SHT31;56185;48.526;9.044;2023-05-07T11:52:22;23.23;51.14
69084;SHT31;56185;48.526;9.044;2023-05-07T11:54:52;23.17;51.33
69084;SHT31;56185;48.526;9.044;2023-05-07T11:57:17;23.09;51.15
69084;SHT31;56185;48.526;9.044;2023-05-07T11:59:42;23.04;52.14
69084;SHT31;56185;48.526;9.044;2023-05-07T12:05:13;22.88;52.41
69084;SHT31;56185;48.526;9.044;2023-05-07T12:07:39;22.82;52.49
69084;SHT31;56185;48.526;9.044;2023-05-07T12:10:05;22.77;52.55
69084;SHT31;56185;48.526;9.044;2023-05-07T12:12:30;22.65;52.16
69084;SHT31;56185;48.526;9.044;2023-05-07T12:14:56;22.59;53.55
69084;SHT31;56185;48.526;9.044;2023-05-07T12:17:21;22.55;53.67
69084;SHT31;56185;48.526;9.044;2023-05-07T12:19:46;22.48;55.31
69084;SHT31;56185;48.526;9.044;2023-05-07T12:22:12;22.41;55.32
69084;SHT31;56185;48.526;9.044;2023-05-07T12:27:13;22.34;56.89
69084;SHT31;56185;48.526;9.044;2023-05-07T12:29:38;22.27;57.65
69084;SHT31;56185;48.526;9.044;2023-05-07T12:32:13;22.21;57.93
69084;SHT31;56185;48.526;9.044;2023-05-07T12:34:39;22.20;57.95
69084;SHT31;56185;48.526;9.044;2023-05-07T12:37:04;22.08;58.86
69084;SHT31;56185;48.526;9.044;2023-05-07T12:39:29;21.93;57.65
69084;SHT31;56185;48.526;9.044;2023-05-07T12:41:56;21.70;56.28
69084;SHT31;56185;48.526;9.044;2023-05-07T12:44:34;21.63;57.31
69084;SHT31;56185;48.526;9.044;2023-05-07T12:47:03;21.62;58.67
69084;SHT31;56185;48.526;9.044;2023-05-07T12:49:28;21.55;60.17
69084;SHT31;56185;48.526;9.044;2023-05-07T12:51:54;21.49;60.05
69084;SHT31;56185;48.526;9.044;2023-05-07T12:54:29;21.31;60.58
69084;SHT31;56185;48.526;9.044;2023-05-07T12:57:05;21.12;60.03
69084;SHT31;56185;48.526;9.044;2023-05-07T12:59:38;20.98;61.56
69084;SHT31;56185;48.526;9.044;2023-05-07T13:02:04;20.80;63.88
69084;SHT31;56185;48.526;9.044;2023-05-07T13:04:30;20.70;63.56
69084;SHT31;56185;48.526;9.044;2023-05-07T13:06:55;20.37;67.06
69084;SHT31;56185;48.526;9.044;2023-05-07T13:09:20;20.30;71.76
69084;SHT31;56185;48.526;9.044;2023-05-07T13:11:45;19.72;72.49
69084;SHT31;56185;48.526;9.044;2023-05-07T13:14:11;19.26;76.33
69084;SHT31;56185;48.526;9.044;2023-05-07T13:16:37;18.89;79.96
69084;SHT31;56185;48.526;9.044;2023-05-07T13:19:02;18.68;82.09
69084;SHT31;56185;48.526;9.044;2023-05-07T13:21:27;18.73;81.37
69084;SHT31;56185;48.526;9.044;2023-05-07T13:23:55;18.70;81.11
69084;SHT31;56185;48.526;9.044;2023-05-07T13:26:21;18.75;80.95
69084;SHT31;56185;48.526;9.044;2023-05-07T13:28:46;18.58;80.19
69084;SHT31;56185;48.526;9.044;2023-05-07T13:31:11;18.66;79.91
69084;SHT31;56185;48.526;9.044;2023-05-07T13:33:36;18.51;80.84
69084;SHT31;56185;48.526;9.044;2023-05-07T13:36:02;18.31;79.94
69084;SHT31;56185;48.526;9.044;2023-05-07T13:38:27;18.10;82.90
69084;SHT31;56185;48.526;9.044;2023-05-07T13:40:53;18.15;80.87
69084;SHT31;56185;48.526;9.044;2023-05-07T13:43:18;18.20;82.49
69084;SHT31;56185;48.526;9.044;2023-05-07T13:45:44;18.10;82.80
69084;SHT31;56185;48.526;9.044;2023-05-07T13:48:09;17.96;85.58
69084;SHT31;56185;48.526;9.044;2023-05-07T13:50:34;18.05;84.36
69084;SHT31;56185;48.526;9.044;2023-05-07T13:52:59;17.97;84.42
69084;SHT31;56185;48.526;9.044;2023-05-07T13:55:25;17.94;83.00
69084;SHT31;56185;48.526;9.044;2023-05-07T13:57:58;17.98;82.55
69084;SHT31;56185;48.526;9.044;2023-05-07T14:00:27;17.79;85.11
69084;SHT31;56185;48.526;9.044;2023-05-07T14:02:52;17.45;84.36
69084;SHT31;56185;48.526;9.044;2023-05-07T14:05:18;17.32;84.33
69084;SHT31;56185;48.526;9.044;2023-05-07T14:07:43;17.21;85.54
69084;SHT31;56185;48.526;9.044;2023-05-07T14:10:09;17.19;84.46
69084;SHT31;56185;48.526;9.044;2023-05-07T14:12:34;17.15;85.02
69084;SHT31;56185;48.526;9.044;2023-05-07T14:14:59;17.25;85.51
69084;SHT31;56185;48.526;9.044;2023-05-07T14:17:25;17.38;83.53
69084;SHT31;56185;48.526;9.044;2023-05-07T14:19:50;17.28;85.94
69084;SHT31;56185;48.526;9.044;2023-05-07T14:22:15;17.28;84.03
69084;SHT31;56185;48.526;9.044;2023-05-07T14:24:41;17.28;83.14
69084;SHT31;56185;48.526;9.044;2023-05-07T14:27:06;17.42;83.87
69084;SHT31;56185;48.526;9.044;2023-05-07T14:29:31;17.57;83.15
69084;SHT31;56185;48.526;9.044;2023-05-07T14:31:56;17.65;82.45
69084;SHT31;56185;48.526;9.044;2023-05-07T14:34:22;17.52;83.44
69084;SHT31;56185;48.526;9.044;2023-05-07T14:36:47;17.36;85.55
69084;SHT31;56185;48.526;9.044;2023-05-07T14:39:12;17.52;84.48
69084;SHT31;56185;48.526;9.044;2023-05-07T14:41:37;17.47;82.86
69084;SHT31;56185;48.526;9.044;2023-05-07T14:44:03;17.60;81.37
69084;SHT31;56185;48.526;9.044;2023-05-07T14:46:28;17.29;83.93
69084;SHT31;56185;48.526;9.044;2023-05-07T14:48:59;17.42;83.65
69084;SHT31;56185;48.526;9.044;2023-05-07T14:51:24;17.60;82.62
69084;SHT31;56185;48.526;9.044;2023-05-07T14:53:50;17.39;84.47
69084;SHT31;56185;48.526;9.044;2023-05-07T14:56:16;17.35;84.44
69084;SHT31;56185;48.526;9.044;2023-05-07T14:58:41;17.19;84.36
69084;SHT31;56185;48.526;9.044;2023-05-07T15:01:06;17.23;84.62
69084;SHT31;56185;48.526;9.044;2023-05-07T15:03:32;17.15;85.55
69084;SHT31;56185;48.526;9.044;2023-05-07T15:05:57;17.67;83.72
69084;SHT31;56185;48.526;9.044;2023-05-07T15:08:22;17.59;84.20
69084;SHT31;56185;48.526;9.044;2023-05-07T15:10:47;17.73;83.97
69084;SHT31;56185;48.526;9.044;2023-05-07T15:13:13;17.94;83.23
69084;SHT31;56185;48.526;9.044;2023-05-07T15:15:38;18.02;82.60
69084;SHT31;56185;48.526;9.044;2023-05-07T15:18:04;18.07;82.19
69084;SHT31;56185;48.526;9.044;2023-05-07T15:20:29;18.02;82.01
69084;SHT31;56185;48.526;9.044;2023-05-07T15:22:54;17.83;83.01
69084;SHT31;56185;48.526;9.044;2023-05-07T15:25:20;17.90;83.16
69084;SHT31;56185;48.526;9.044;2023-05-07T15:27:45;17.83;82.49
69084;SHT31;56185;48.526;9.044;2023-05-07T15:30:11;17.79;83.50
69084;SHT31;56185;48.526;9.044;2023-05-07T15:32:37;17.93;82.70
69084;SHT31;56185;48.526;9.044;2023-05-07T15:35:02;18.01;81.05
69084;SHT31;56185;48.526;9.044;2023-05-07T15:37:28;18.02;81.09
69084;SHT31;56185;48.526;9.044;2023-05-07T15:39:53;18.12;80.53
69084;SHT31;56185;48.526;9.044;2023-05-07T15:42:18;18.21;80.07
69084;SHT31;56185;48.526;9.044;2023-05-07T15:44:43;18.14;79.28
69084;SHT31;56185;48.526;9.044;2023-05-07T15:47:09;18.12;80.01
69084;SHT31;56185;48.526;9.044;2023-05-07T15:49:34;18.12;80.93
69084;SHT31;56185;48.526;9.044;2023-05-07T15:51:59;18.17;81.75
69084;SHT31;56185;48.526;9.044;2023-05-07T15:54:24;18.25;81.97